Список аэропортов
Фактическая погода:

21 января, 13:00
Температура: -4°C (-9.2*)
Ветер: северный 4 м/с
Давление: *758 мм
разорв. обл.
480 м
Время (МСК)Темп. СВетерВлажностьДавлениеОблачностьОсадки
09:00-8З, 1 м/с94%1011 гПаоблачно
10:00-8СЗ, 1 м/с95%1011 гПаоблачно
11:00-7СЗ, 1 м/с94%1011 гПаоблачно
12:00-5СЗ, 1 м/с94%1011 гПаоблачно
13:00-4С, 1 м/с92%1011 гПаоблачно
14:00-3С, 1 м/с90%1012 гПас прояснениями
15:00-3С, 2 м/с88%1012 гПаоблачно
16:00-3С, 1 м/с84%1012 гПаоблачно
17:00-3С, 2 м/с82%1013 гПаоблачно
18:00-3С, 2 м/с82%1014 гПаоблачно
19:00-4С, 2 м/с82%1015 гПаоблачно
20:00-5С, 2 м/с85%1015 гПамалооблачно
21:00-6С, 2 м/с87%1015 гПамалооблачно
22:00-7С, 2 м/с88%1016 гПамалооблачно
23:00-8С, 2 м/с88%1016 гПас прояснениями
22 января
00:00-8С, 2 м/с88%1017 гПаоблачно
01:00-8С, 2 м/с88%1017 гПаоблачно
02:00-8С, 1 м/с87%1018 гПаоблачно
03:00-9СЗ, 1 м/с89%1018 гПаоблачно
04:00-10СЗ, 2 м/с90%1019 гПаоблачно
05:00-10СЗ, 2 м/с90%1019 гПамалооблачно
06:00-11СЗ, 1 м/с91%1019 гПаясно
07:00-12СЗ, 2 м/с92%1019 гПаясно
08:00-12З, 2 м/с91%1019 гПаясно
09:00-13З, 2 м/с91%1020 гПамалооблачно
10:00-12З, 2 м/с92%1020 гПас прояснениями
11:00-10СЗ, 1 м/с90%1020 гПаоблачно
12:00-8СЗ, 2 м/с84%1019 гПас прояснениями
13:00-6СЗ, 3 м/с78%1019 гПас прояснениями
14:00-5СЗ, 4 м/с76%1019 гПаясно
15:00-4С, 4 м/с75%1019 гПаясно
16:00-4С, 3 м/с77%1019 гПаясно
17:00-5С, 2 м/с82%1020 гПаясно
18:00-8СЗ, 1 м/с89%1020 гПаясно
19:00-10З, 1 м/с91%1021 гПаясно
20:00-11СЗ, 1 м/с92%1021 гПаясно
21:00-11СЗ, 2 м/с94%1022 гПаясно
22:00-12С, 2 м/с94%1022 гПамалооблачно
23:00-12С, 2 м/с94%1022 гПамалооблачно
23 января
00:00-13С, 2 м/с94%1022 гПамалооблачно
01:00-13С, 2 м/с93%1022 гПамалооблачно
02:00-14С, 2 м/с93%1022 гПамалооблачно
03:00-14С, 2 м/с93%1022 гПамалооблачно
04:00-14С, 2 м/с93%1023 гПамалооблачно
05:00-15С, 1 м/с92%1023 гПамалооблачно
06:00-15СЗ, 1 м/с93%1023 гПамалооблачно
07:00-15СЗ, 1 м/с93%1024 гПас прояснениями
08:00-15СЗ, 1 м/с93%1024 гПаоблачно
09:00-14СЗ, 1 м/с94%1025 гПаоблачно